Dover, DE

11:44 PM EDT on September 02, 2014 (GMT -0400)
Fifer Orchards | Change Station
CLOSE
Current Station
Personal Weather Station
Location: Delaware, DE
Elevation: 46 ft
Nearby Weather Stations

Elev 46 ft 39.12 °N, 75.57 °W | Updated 13 minutes ago

Scattered Clouds
Scattered Clouds
74.3 °F
Feels Like 72 °F
N
1.0
Wind Variable Wind from NW
Gusts 3.0 mph

Today
High -- | Low -- °F
--% Chance of Precip.
Yesterday
High -- | Low -- °F
Precip. -- in
6:31 AM 7:31 PM
First Quarter, 58% visible
Pressure 29.87 in
Visibility 10.0 miles
Clouds Scattered Clouds 8500 ft
Heat Index 72 °F
Dew Point 72 °F
Humidity 93%
Rainfall 0.00 in
Snow Depth Not available.
UV 0 out of 12
Pollen 9.30 out of 12
Air Quality Not available.
Flu Activity Not available.
METAR KDOV 030258Z AUTO 24005KT 10SM SCT085 26/23 A2986 RMK AO2 LTG DSNT E RAB0224E0250 SLP114 P0000 60000 T02550233 50004

More Conditions Fewer Conditions

Pressure 29.87 in
Visibility 10.0 miles
Clouds Scattered Clouds 8500 ft
Heat Index 72 °F
Dew Point 72 °F
Humidity 93%
Rainfall 0.00 in
Snow Depth Not available.
UV 0 out of 12
Pollen 9.30 out of 12
Air Quality Not available.
Flu Activity Not available.
METAR KDOV 030258Z AUTO 24005KT 10SM SCT085 26/23 A2986 RMK AO2 LTG DSNT E RAB0224E0250 SLP114 P0000 60000 T02550233 50004

More Conditions Fewer Conditions

10-Day Weather Forecast

Almanac

Astronomy

Sep. 02, 2014 Rise Set
Actual Time 6:31 AM EDT 7:31 PM EDT
Civil Twilight 6:04 AM EDT 7:58 PM EDT
Nautical Twilight 5:31 AM EDT 8:30 PM EDT
Astronomical Twilight 4:57 AM EDT 9:04 PM EDT
Moon 2:10 PM EDT (9/2) No Moon Set
Length of Visible Light 13h 54m
Length of Day
12h 59m
Tomorrow will be 2m 28s shorter.
First Quarter, 58% of the Moon is Illuminated
Today
First Quarter
Sep 8
Full
Sep 15
Last Quarter
Sep 24
New
Oct 1
First Quarter

Today's Extremes

State Highs State Lows

Community

WunderPhotos

Upload Photos

1,749,867 photos uploaded!

WunderBlogs® & News

Nearby

Snow Depth

Station Depth Elevation
No new snow has been reported.

Earthquake Activity

City Distance Mag. Time & Date
No recent earthquake activity has been reported nearby.
Minimum magnitude displayed is 2.5.

Coastal Water Temperatures

Place Temperature
Ship John Shoal, NJ 78.1 °F
Cape May, NJ 81.0 °F
Reedy Point, DE 80.1 °F
Delaware City, DE 80.1 °F
Marcus Hook, PA 80.1 °F

Nearby Weather Stations